createdAt,value
2023-04-26T00:01:06.411Z,6.85
2023-04-26T00:06:10.413Z,6.20
2023-04-26T00:11:13.035Z,7.70
2023-04-26T00:16:15.843Z,7.85
2023-04-26T00:21:18.352Z,6.20
2023-04-26T00:26:21.657Z,7.30
2023-04-26T00:31:24.283Z,7.78
2023-04-26T00:36:27.169Z,7.50
2023-04-26T00:41:29.746Z,7.30
2023-04-26T00:46:32.639Z,7.03
2023-04-26T00:51:36.486Z,8.07
2023-04-26T00:56:40.712Z,7.47
2023-04-26T01:01:43.449Z,6.93
2023-04-26T01:06:46.688Z,8.82
2023-04-26T01:11:49.426Z,8.07
2023-04-26T01:16:52.709Z,8.40
2023-04-26T01:21:55.353Z,7.03
2023-04-26T01:26:58.120Z,8.18
2023-04-26T01:32:00.699Z,7.72
2023-04-26T01:37:04.352Z,8.48
2023-04-26T01:42:06.823Z,8.18
2023-04-26T01:47:09.348Z,8.27
2023-04-26T01:52:11.865Z,7.85
2023-04-26T01:57:14.330Z,8.48
2023-04-26T02:02:19.184Z,8.32
2023-04-26T02:07:21.780Z,8.57
2023-04-26T02:12:24.349Z,9.70
2023-04-26T02:17:27.906Z,9.43
2023-04-26T02:22:31.547Z,8.77
2023-04-26T02:27:34.299Z,8.70
2023-04-26T02:32:37.030Z,9.48
2023-04-26T02:37:39.566Z,9.02
2023-04-26T02:42:42.494Z,8.27
2023-04-26T02:47:45.104Z,9.95
2023-04-26T02:52:47.938Z,10.07
2023-04-26T02:57:50.470Z,9.32
2023-04-26T03:02:53.241Z,8.77
2023-04-26T03:07:56.169Z,9.15
2023-04-26T03:12:58.876Z,9.57
2023-04-26T03:18:01.756Z,9.07
2023-04-26T03:23:04.350Z,9.27
2023-04-26T03:28:07.083Z,8.88
2023-04-26T03:33:10.272Z,9.90
2023-04-26T03:38:13.088Z,10.48
2023-04-26T03:43:16.500Z,9.80
2023-04-26T03:48:20.235Z,9.27
2023-04-26T03:53:23.072Z,9.30
2023-04-26T03:58:26.617Z,8.30
2023-04-26T04:03:30.716Z,8.32
2023-04-26T04:08:34.218Z,7.35
2023-04-26T04:13:36.843Z,8.40
2023-04-26T04:18:39.491Z,7.50
2023-04-26T04:23:42.623Z,6.90
2023-04-26T04:28:47.573Z,6.63
2023-04-26T04:33:50.276Z,6.32
2023-04-26T04:38:54.162Z,6.70
2023-04-26T04:43:58.374Z,7.03
2023-04-26T04:49:01.994Z,5.20
2023-04-26T04:54:13.054Z,4.95
2023-04-26T04:59:15.852Z,5.45
2023-04-26T05:04:18.752Z,5.25
2023-04-26T05:09:21.884Z,5.03
2023-04-26T05:14:24.400Z,4.55
2023-04-26T05:19:26.939Z,4.63
2023-04-26T05:24:33.808Z,4.65
2023-04-26T05:29:36.313Z,4.30
2023-04-26T05:34:49.469Z,2.88
2023-04-26T05:39:52.806Z,3.45
2023-04-26T05:44:59.416Z,3.30
2023-04-26T05:50:04.629Z,3.53
2023-04-26T05:55:10.557Z,3.63
2023-04-26T06:00:14.283Z,3.92
2023-04-26T06:05:18.566Z,3.83
2023-04-26T06:10:21.807Z,4.32
2023-04-26T06:15:24.308Z,4.25
2023-04-26T06:20:27.025Z,3.55
2023-04-26T06:25:29.604Z,4.00
2023-04-26T06:30:33.160Z,4.55
2023-04-26T06:35:42.562Z,3.67
2023-04-26T06:40:46.952Z,4.00
2023-04-26T06:45:50.217Z,3.33
2023-04-26T06:50:55.244Z,3.55
2023-04-26T06:55:58.468Z,3.85
2023-04-26T07:01:01.626Z,3.40
2023-04-26T07:06:05.336Z,3.95
2023-04-26T07:11:13.299Z,3.60
2023-04-26T07:16:16.171Z,3.90
2023-04-26T07:21:19.021Z,3.65
2023-04-26T07:26:26.899Z,4.40
2023-04-26T07:31:30.604Z,3.80
2023-04-26T07:36:33.235Z,3.13
2023-04-26T07:41:36.057Z,4.22
2023-04-26T07:46:39.075Z,3.33
2023-04-26T07:56:46.488Z,3.92
2023-04-26T08:01:49.001Z,3.67
2023-04-26T08:06:51.447Z,3.88
2023-04-26T08:11:54.117Z,4.18
2023-04-26T08:21:59.560Z,4.25
2023-04-26T08:32:04.750Z,3.65
2023-04-26T08:37:11.453Z,3.72
2023-04-26T08:42:16.421Z,3.83
2023-04-26T08:47:40.430Z,3.65
2023-04-26T08:52:44.853Z,3.63
2023-04-26T08:57:48.837Z,3.88
2023-04-26T09:02:53.480Z,3.47
2023-04-26T09:08:04.817Z,4.22
2023-04-26T09:13:07.477Z,4.20
2023-04-26T09:23:19.612Z,5.00
2023-04-26T09:28:23.750Z,4.28
2023-04-26T09:33:26.314Z,4.63
2023-04-26T09:43:37.919Z,2.83
2023-04-26T09:48:40.358Z,3.28
2023-04-26T09:53:47.327Z,3.15
2023-04-26T09:58:58.544Z,3.35
2023-04-26T10:04:05.236Z,3.75
2023-04-26T10:09:09.517Z,9.35
2023-04-26T10:14:12.588Z,3.38
2023-04-26T10:19:15.324Z,3.42
2023-04-26T10:29:21.475Z,3.10
2023-04-26T10:34:24.113Z,3.50
2023-04-26T10:39:28.463Z,2.33
2023-04-26T10:44:41.679Z,2.60
2023-04-26T10:49:47.262Z,3.05
2023-04-26T10:54:59.970Z,3.05
2023-04-26T11:00:16.892Z,2.70
2023-04-26T11:05:36.169Z,2.53
2023-04-26T11:10:39.365Z,2.67
2023-04-26T11:15:41.883Z,2.65
2023-04-26T11:20:45.305Z,2.53
2023-04-26T11:30:50.835Z,3.60
2023-04-26T11:35:55.583Z,2.45
2023-04-26T11:41:04.726Z,2.80
2023-04-26T11:46:08.967Z,2.30
2023-04-26T11:51:12.340Z,2.33
2023-04-26T11:56:18.908Z,2.60
2023-04-26T12:01:29.204Z,2.42
2023-04-26T12:06:53.020Z,2.03
2023-04-26T12:12:02.923Z,2.00
2023-04-26T12:17:07.062Z,2.40
2023-04-26T12:22:09.978Z,1.80
2023-04-26T12:27:21.793Z,2.17
2023-04-26T12:32:24.357Z,2.17
2023-04-26T12:37:26.783Z,1.83
2023-04-26T12:42:29.237Z,1.60
2023-04-26T12:47:32.286Z,2.05
2023-04-26T12:52:34.981Z,1.95
2023-04-26T12:57:39.097Z,1.95
2023-04-26T13:02:42.173Z,1.83
2023-04-26T13:07:45.220Z,2.00
2023-04-26T13:12:47.801Z,1.45
2023-04-26T13:17:50.809Z,1.90
2023-04-26T13:22:53.453Z,1.80
2023-04-26T13:27:56.163Z,1.27
2023-04-26T13:33:00.218Z,1.50
2023-04-26T13:38:03.253Z,1.70
2023-04-26T13:43:05.694Z,1.63
2023-04-26T13:48:08.188Z,1.58
2023-04-26T13:53:10.833Z,2.00
2023-04-26T13:58:13.514Z,1.60
2023-04-26T14:03:16.536Z,1.80
2023-04-26T14:08:19.183Z,1.90
2023-04-26T14:13:22.134Z,1.58
2023-04-26T14:18:24.568Z,1.70
2023-04-26T14:23:27.101Z,1.90
2023-04-26T14:28:29.632Z,1.70
2023-04-26T14:33:32.507Z,1.30
2023-04-26T14:38:35.077Z,1.65
2023-04-26T14:43:37.558Z,1.73
2023-04-26T14:48:40.345Z,1.73
2023-04-26T14:53:42.888Z,1.90
2023-04-26T14:58:45.511Z,1.50
2023-04-26T15:03:48.288Z,2.63
2023-04-26T15:08:50.938Z,1.80
2023-04-26T15:13:53.470Z,2.10
2023-04-26T15:18:56.246Z,1.80
2023-04-26T15:23:58.854Z,1.90
2023-04-26T15:29:01.684Z,2.00
2023-04-26T15:34:04.941Z,2.20
2023-04-26T15:39:08.665Z,2.30
2023-04-26T15:44:11.750Z,2.97
2023-04-26T15:49:14.272Z,4.53
2023-04-26T15:54:16.772Z,2.95
2023-04-26T15:59:20.538Z,3.75
2023-04-26T16:04:23.314Z,4.88
2023-04-26T16:09:26.211Z,3.22
2023-04-26T16:14:28.809Z,2.90
2023-04-26T16:19:32.187Z,3.83
2023-04-26T16:24:34.655Z,3.05
2023-04-26T16:29:37.234Z,3.50
2023-04-26T16:34:39.782Z,3.60
2023-04-26T16:39:42.294Z,3.03
2023-04-26T16:44:44.816Z,3.65
2023-04-26T16:49:47.492Z,3.33
2023-04-26T16:54:49.945Z,3.22
2023-04-26T16:59:52.549Z,3.70
2023-04-26T17:04:55.423Z,3.55
2023-04-26T17:09:57.994Z,4.10
2023-04-26T17:15:01.786Z,4.47
2023-04-26T17:20:09.484Z,4.38
2023-04-26T17:25:13.852Z,4.63
2023-04-26T17:30:17.047Z,5.22
2023-04-26T17:35:19.548Z,4.80
2023-04-26T17:40:22.072Z,4.45
2023-04-26T17:45:24.778Z,4.55
2023-04-26T17:50:27.364Z,4.40
2023-04-26T17:55:29.888Z,5.00
2023-04-26T18:00:32.741Z,4.65
2023-04-26T18:05:35.345Z,5.07
2023-04-26T18:10:37.849Z,4.70
2023-04-26T18:15:40.354Z,4.75
2023-04-26T18:20:42.895Z,4.75
2023-04-26T18:25:45.710Z,4.35
2023-04-26T18:30:48.206Z,4.90
2023-04-26T18:35:50.866Z,4.75
2023-04-26T18:40:53.285Z,4.88
2023-04-26T18:45:55.876Z,6.18
2023-04-26T18:50:58.389Z,7.15
2023-04-26T18:56:00.909Z,7.18
2023-04-26T19:01:03.532Z,6.85
2023-04-26T19:06:10.683Z,6.57
2023-04-26T19:11:13.888Z,7.95
2023-04-26T19:16:16.509Z,7.75
2023-04-26T19:21:19.005Z,7.72
2023-04-26T19:26:21.545Z,8.20
2023-04-26T19:31:24.132Z,7.75
2023-04-26T19:36:28.471Z,8.52
2023-04-26T19:41:31.015Z,6.47
2023-04-26T19:46:33.656Z,6.28
2023-04-26T19:51:36.221Z,6.25
2023-04-26T19:56:38.694Z,6.80
2023-04-26T20:01:41.358Z,7.43
2023-04-26T20:06:44.394Z,6.75
2023-04-26T20:11:47.609Z,7.28
2023-04-26T20:16:50.544Z,9.15
2023-04-26T20:21:53.038Z,9.35
2023-04-26T20:26:59.482Z,9.43
2023-04-26T20:32:02.124Z,8.32
2023-04-26T20:37:04.674Z,9.20
2023-04-26T20:42:07.154Z,10.10
2023-04-26T20:47:11.094Z,9.18
2023-04-26T20:52:13.656Z,10.55
2023-04-26T20:57:17.064Z,7.88
2023-04-26T21:02:19.718Z,7.63
2023-04-26T21:07:22.221Z,7.82
2023-04-26T21:12:24.859Z,7.55
2023-04-26T21:17:27.511Z,7.43
2023-04-26T21:22:30.082Z,6.90
2023-04-26T21:27:32.620Z,8.27
2023-04-26T21:32:35.428Z,7.88
2023-04-26T21:37:38.333Z,8.35
2023-04-26T21:42:43.167Z,9.60
2023-04-26T21:47:47.226Z,7.25
2023-04-26T21:52:49.764Z,7.63
2023-04-26T21:57:52.618Z,8.00
2023-04-26T22:02:55.415Z,6.50
2023-04-26T22:07:58.045Z,4.70
2023-04-26T22:13:00.631Z,5.50
2023-04-26T22:18:03.210Z,5.05
2023-04-26T22:23:06.066Z,5.00
2023-04-26T22:28:08.542Z,4.60
2023-04-26T22:33:12.566Z,5.60
2023-04-26T22:38:15.123Z,4.72
2023-04-26T22:43:18.218Z,4.68
2023-04-26T22:48:20.715Z,4.82
2023-04-26T22:53:23.163Z,5.03
2023-04-26T22:58:25.718Z,4.55
2023-04-26T23:03:28.380Z,4.28
2023-04-26T23:08:31.330Z,4.20
2023-04-26T23:13:33.866Z,4.18
2023-04-26T23:18:37.420Z,4.70
2023-04-26T23:23:39.981Z,4.43
2023-04-26T23:28:42.573Z,5.45
2023-04-26T23:33:45.125Z,5.28
2023-04-26T23:38:47.694Z,5.38
2023-04-26T23:43:50.220Z,6.25
2023-04-26T23:48:52.776Z,6.07
2023-04-26T23:53:55.249Z,7.07
2023-04-26T23:58:58.598Z,7.32
